Time;durP1;ratioP1;P1;durP2;ratioP2;P2;SDS_P1;SDS_P2;PMS_P1;PMS_P2;Temp;Humidity;BMP_temperature;BMP_pressure;BME280_temperature;BME280_humidity;BME280_pressure;Samples;Min_cycle;Max_cycle;Signal;HPM_P1;HPM_P2
2022/02/20 00:01:39;;;;;;;;;;;7.20;99.90;;;;;;5038544;28;20362;-65
2022/02/20 00:04:05;;;;;;;;;;;7.20;99.90;;;;;;5056307;28;19959;-67
2022/02/20 00:06:31;;;;;;;;;;;7.20;99.90;;;;;;5037905;28;19954;-71
2022/02/20 00:08:57;;;;;;;;;;;7.20;99.90;;;;;;5057418;28;20350;-69
2022/02/20 00:11:22;;;;;;;;;;;7.20;99.90;;;;;;5038663;28;20411;-66
2022/02/20 00:13:48;;;;;;;;;;;7.20;99.90;;;;;;5056476;28;19947;-65
2022/02/20 00:16:13;;;;;;;;;;;7.20;99.90;;;;;;5038936;28;20401;-65
2022/02/20 00:18:39;;;;;;;;;;;7.30;99.90;;;;;;5038355;28;20004;-67
2022/02/20 00:21:04;;;;;;;;;;;7.30;99.90;;;;;;5056519;28;19912;-65
2022/02/20 00:23:30;;;;;;;;;;;7.20;99.90;;;;;;5056758;28;19912;-66
2022/02/20 00:25:55;;;;;;;;;;;7.30;99.90;;;;;;5055095;28;20307;-67
2022/02/20 00:28:23;;;;;;;;;;;7.30;99.90;;;;;;5056378;28;19911;-65
2022/02/20 00:30:48;;;;;;;;;;;7.20;99.90;;;;;;5037929;28;19905;-65
2022/02/20 00:33:14;;;;;;;;;;;7.20;99.90;;;;;;5039283;28;20341;-69
2022/02/20 00:35:40;;;;;;;;;;;7.20;99.90;;;;;;5056109;28;19927;-65
2022/02/20 00:38:06;;;;;;;;;;;7.30;99.90;;;;;;5037933;28;19905;-67
2022/02/20 00:40:32;;;;;;;;;;;7.30;99.90;;;;;;5056185;28;19984;-65
2022/02/20 00:42:58;;;;;;;;;;;7.30;99.90;;;;;;5055995;28;20358;-66
2022/02/20 00:45:24;;;;;;;;;;;7.30;99.90;;;;;;5038137;28;19909;-67
2022/02/20 00:47:50;;;;;;;;;;;7.30;99.90;;;;;;5057463;28;19905;-67
2022/02/20 00:50:15;;;;;;;;;;;7.30;99.90;;;;;;5038721;28;20034;-65
2022/02/20 00:52:41;;;;;;;;;;;7.30;99.90;;;;;;5054324;28;19911;-65
2022/02/20 00:55:08;;;;;;;;;;;7.40;99.90;;;;;;5036902;28;20003;-66
2022/02/20 00:57:33;;;;;;;;;;;7.40;99.90;;;;;;5052699;28;19954;-69
2022/02/20 00:59:59;;;;;;;;;;;7.40;99.90;;;;;;5037192;28;19916;-66
2022/02/20 01:02:25;;;;;;;;;;;7.40;99.90;;;;;;5036814;28;19904;-66
2022/02/20 01:04:50;;;;;;;;;;;7.50;99.90;;;;;;5035708;28;19905;-66
2022/02/20 01:07:18;;;;;;;;;;;7.50;99.90;;;;;;5053697;28;20080;-65
2022/02/20 01:09:44;;;;;;;;;;;7.50;99.90;;;;;;5035501;28;19911;-67
2022/02/20 01:12:09;;;;;;;;;;;7.50;99.90;;;;;;5036182;28;19909;-66
2022/02/20 01:14:35;;;;;;;;;;;7.50;99.90;;;;;;5054532;28;19959;-71
2022/02/20 01:17:00;;;;;;;;;;;7.50;99.90;;;;;;5055923;28;19916;-66
2022/02/20 01:19:26;;;;;;;;;;;7.60;99.90;;;;;;5057035;28;19948;-66
2022/02/20 01:21:51;;;;;;;;;;;7.60;99.90;;;;;;5054827;28;19905;-65
2022/02/20 01:24:17;;;;;;;;;;;7.60;99.90;;;;;;5055393;28;20345;-67
2022/02/20 01:26:42;;;;;;;;;;;7.70;99.90;;;;;;5035564;28;19905;-64
2022/02/20 01:29:08;;;;;;;;;;;7.60;99.90;;;;;;5053897;28;19966;-64
2022/02/20 01:31:33;;;;;;;;;;;7.60;99.90;;;;;;5053725;28;19905;-66
2022/02/20 01:33:59;;;;;;;;;;;7.60;99.90;;;;;;5054189;28;19958;-65
2022/02/20 01:36:25;;;;;;;;;;;7.60;99.90;;;;;;5036898;28;19905;-66
2022/02/20 01:38:50;;;;;;;;;;;7.60;99.90;;;;;;5054550;28;20269;-65
2022/02/20 01:41:16;;;;;;;;;;;7.60;99.90;;;;;;5036916;28;19916;-66
2022/02/20 01:43:42;;;;;;;;;;;7.60;99.90;;;;;;5036059;28;19909;-66
2022/02/20 01:46:07;;;;;;;;;;;7.70;99.90;;;;;;5037015;28;19916;-67
2022/02/20 01:48:35;;;;;;;;;;;7.60;99.90;;;;;;5057730;28;19905;-66
2022/02/20 01:51:01;;;;;;;;;;;7.70;99.90;;;;;;5039100;28;19904;-66
2022/02/20 01:53:26;;;;;;;;;;;7.70;99.90;;;;;;5039354;28;19915;-66
2022/02/20 01:55:52;;;;;;;;;;;7.70;99.90;;;;;;5038238;28;19904;-69
2022/02/20 01:58:18;;;;;;;;;;;7.70;99.90;;;;;;5055916;28;20279;-67
2022/02/20 02:00:44;;;;;;;;;;;7.70;99.90;;;;;;5053739;28;19914;-64
2022/02/20 02:03:11;;;;;;;;;;;7.80;99.90;;;;;;5053796;28;19911;-65
2022/02/20 02:05:36;;;;;;;;;;;7.70;99.90;;;;;;5053231;28;19996;-65
2022/02/20 02:08:02;;;;;;;;;;;7.80;99.90;;;;;;5052939;28;19912;-65
2022/02/20 02:10:27;;;;;;;;;;;7.80;99.90;;;;;;5035788;28;19957;-65
2022/02/20 02:12:53;;;;;;;;;;;7.80;99.90;;;;;;5052860;28;19909;-65
2022/02/20 02:15:18;;;;;;;;;;;7.80;99.90;;;;;;5035319;28;20270;-65
2022/02/20 02:17:44;;;;;;;;;;;7.80;99.90;;;;;;5035056;28;19905;-66
2022/02/20 02:20:09;;;;;;;;;;;7.80;99.90;;;;;;5038881;28;19963;-65
2022/02/20 02:22:35;;;;;;;;;;;7.80;99.90;;;;;;5057715;28;20413;-66
2022/02/20 02:25:01;;;;;;;;;;;7.80;99.90;;;;;;5057566;28;19998;-66
2022/02/20 02:27:27;;;;;;;;;;;7.70;99.90;;;;;;5041580;28;19919;-67
2022/02/20 02:29:52;;;;;;;;;;;7.70;99.90;;;;;;5058370;28;19905;-69
2022/02/20 02:32:18;;;;;;;;;;;7.70;99.90;;;;;;5040829;28;19927;-65
2022/02/20 02:34:45;;;;;;;;;;;7.60;99.90;;;;;;5057971;28;19905;-66
2022/02/20 02:37:11;;;;;;;;;;;7.60;99.90;;;;;;5059055;28;19991;-67
2022/02/20 02:39:37;;;;;;;;;;;7.70;99.90;;;;;;5058923;28;19962;-66
2022/02/20 02:42:03;;;;;;;;;;;7.70;99.90;;;;;;5040848;28;20365;-65
2022/02/20 02:44:29;;;;;;;;;;;7.60;99.90;;;;;;5058410;28;19913;-65
2022/02/20 02:46:54;;;;;;;;;;;7.60;99.90;;;;;;5040126;28;19904;-64
2022/02/20 02:49:20;;;;;;;;;;;7.70;99.90;;;;;;5059289;28;19936;-66
2022/02/20 02:51:45;;;;;;;;;;;7.60;99.90;;;;;;5040821;28;19912;-67
2022/02/20 02:54:13;;;;;;;;;;;7.60;99.90;;;;;;5056555;28;19936;-65
2022/02/20 02:56:39;;;;;;;;;;;7.60;99.90;;;;;;5040685;28;19939;-68
2022/02/20 02:59:06;;;;;;;;;;;7.50;99.90;;;;;;5040995;28;19948;-68
2022/02/20 03:01:32;;;;;;;;;;;7.60;99.90;;;;;;5041898;28;19912;-69
2022/02/20 03:03:58;;;;;;;;;;;7.50;99.90;;;;;;5057854;28;19947;-67
2022/02/20 03:06:25;;;;;;;;;;;7.50;99.90;;;;;;5040123;28;19905;-67
2022/02/20 03:08:52;;;;;;;;;;;7.50;99.90;;;;;;5023415;28;19904;-67
2022/02/20 03:11:19;;;;;;;;;;;7.50;99.90;;;;;;5058488;28;19905;-71
2022/02/20 03:13:45;;;;;;;;;;;7.50;99.90;;;;;;5040013;28;19912;-66
2022/02/20 03:16:12;;;;;;;;;;;7.50;99.90;;;;;;5040092;28;19921;-66
2022/02/20 03:18:39;;;;;;;;;;;7.50;99.90;;;;;;5059443;28;19912;-67
2022/02/20 03:21:06;;;;;;;;;;;7.50;99.90;;;;;;5040289;28;19917;-66
2022/02/20 03:23:33;;;;;;;;;;;7.40;99.90;;;;;;5058190;28;20285;-69
2022/02/20 03:26:00;;;;;;;;;;;7.50;99.90;;;;;;5057375;28;19908;-65
2022/02/20 03:28:26;;;;;;;;;;;7.40;99.90;;;;;;5058272;28;19905;-66
2022/02/20 03:30:52;;;;;;;;;;;7.50;99.90;;;;;;5039915;28;19905;-67
2022/02/20 03:33:20;;;;;;;;;;;7.40;99.90;;;;;;5040594;28;19905;-71
2022/02/20 03:35:49;;;;;;;;;;;7.40;99.90;;;;;;5039859;28;19909;-67
2022/02/20 03:38:15;;;;;;;;;;;7.40;99.90;;;;;;5040663;28;19905;-66
2022/02/20 03:40:41;;;;;;;;;;;7.40;99.90;;;;;;5041345;28;19920;-67
2022/02/20 03:43:07;;;;;;;;;;;7.40;99.90;;;;;;5039384;28;19923;-66
2022/02/20 03:45:32;;;;;;;;;;;7.40;99.90;;;;;;5058096;28;20002;-66
2022/02/20 03:47:58;;;;;;;;;;;7.40;99.90;;;;;;5039379;28;19912;-65
2022/02/20 03:50:25;;;;;;;;;;;7.40;99.90;;;;;;5040553;28;19905;-65
2022/02/20 03:52:50;;;;;;;;;;;7.50;99.90;;;;;;5057670;28;19927;-67
2022/02/20 03:55:16;;;;;;;;;;;7.50;99.90;;;;;;5040733;28;20264;-69
2022/02/20 03:57:42;;;;;;;;;;;7.50;99.90;;;;;;5040234;28;19905;-67
2022/02/20 04:00:17;;;;;;;;;;;7.50;99.90;;;;;;5056191;28;19913;-66
2022/02/20 04:02:43;;;;;;;;;;;7.50;99.90;;;;;;5057698;28;19912;-66
2022/02/20 04:05:10;;;;;;;;;;;7.50;99.90;;;;;;5039523;28;19905;-66
2022/02/20 04:07:35;;;;;;;;;;;7.50;99.90;;;;;;5057938;28;19904;-71
2022/02/20 04:10:02;;;;;;;;;;;7.50;99.90;;;;;;5058021;28;20311;-66
2022/02/20 04:12:29;;;;;;;;;;;7.50;99.90;;;;;;5058108;28;19909;-66
2022/02/20 04:14:54;;;;;;;;;;;7.50;99.90;;;;;;5056752;28;19908;-66
2022/02/20 04:17:24;;;;;;;;;;;7.60;99.90;;;;;;5040578;28;19924;-67
2022/02/20 04:19:50;;;;;;;;;;;7.60;99.90;;;;;;5039486;28;19905;-70
2022/02/20 04:22:17;;;;;;;;;;;7.50;99.90;;;;;;5058391;28;19905;-67
2022/02/20 04:24:44;;;;;;;;;;;7.50;99.90;;;;;;5040340;28;19904;-72
2022/02/20 04:27:10;;;;;;;;;;;7.60;99.90;;;;;;5039432;28;19909;-66
2022/02/20 04:29:35;;;;;;;;;;;7.50;99.90;;;;;;5057899;28;19911;-69
2022/02/20 04:32:01;;;;;;;;;;;7.60;99.90;;;;;;5039637;28;20274;-69
2022/02/20 04:34:27;;;;;;;;;;;7.60;99.90;;;;;;5039652;28;19912;-67
2022/02/20 04:36:53;;;;;;;;;;;7.60;99.90;;;;;;5039469;28;19905;-66
2022/02/20 04:39:18;;;;;;;;;;;7.60;99.90;;;;;;5058684;28;19905;-66
2022/02/20 04:41:44;;;;;;;;;;;7.50;99.90;;;;;;5039329;28;19921;-70
2022/02/20 04:44:11;;;;;;;;;;;7.60;99.90;;;;;;5039019;28;19995;-67
2022/02/20 04:46:36;;;;;;;;;;;7.60;99.90;;;;;;5057427;28;19912;-66
2022/02/20 04:49:04;;;;;;;;;;;7.60;99.90;;;;;;5057285;28;19904;-65
2022/02/20 04:51:29;;;;;;;;;;;7.50;99.90;;;;;;5039935;28;19936;-68
2022/02/20 04:53:55;;;;;;;;;;;7.60;99.90;;;;;;5057093;28;19938;-66
2022/02/20 04:56:20;;;;;;;;;;;7.60;99.90;;;;;;5040475;28;19912;-66
2022/02/20 04:58:46;;;;;;;;;;;7.60;99.90;;;;;;5057669;28;19905;-67
2022/02/20 05:01:11;;;;;;;;;;;7.70;99.90;;;;;;5056872;28;19914;-68
2022/02/20 05:03:37;;;;;;;;;;;7.60;99.90;;;;;;5039516;28;19916;-71
2022/02/20 05:06:03;;;;;;;;;;;7.60;99.90;;;;;;5056972;28;19904;-66
2022/02/20 05:08:28;;;;;;;;;;;7.60;99.90;;;;;;5057142;28;19928;-66
2022/02/20 05:10:54;;;;;;;;;;;7.70;99.90;;;;;;5056153;28;19905;-65
2022/02/20 05:13:19;;;;;;;;;;;7.60;99.90;;;;;;5056632;28;19912;-65
2022/02/20 05:15:47;;;;;;;;;;;7.60;99.90;;;;;;5056160;28;20374;-66
2022/02/20 05:18:13;;;;;;;;;;;7.60;99.90;;;;;;5057125;28;19958;-70
2022/02/20 05:20:39;;;;;;;;;;;7.50;99.90;;;;;;5039780;28;19920;-71
2022/02/20 05:23:04;;;;;;;;;;;7.60;99.90;;;;;;5056829;28;19905;-64
2022/02/20 05:25:30;;;;;;;;;;;7.70;99.90;;;;;;5038125;28;19905;-69
2022/02/20 05:27:56;;;;;;;;;;;7.60;99.90;;;;;;5054396;28;19905;-68
2022/02/20 05:30:21;;;;;;;;;;;7.60;99.90;;;;;;5054807;28;19904;-65
2022/02/20 05:32:47;;;;;;;;;;;7.60;99.90;;;;;;5054728;28;19908;-64
2022/02/20 05:35:12;;;;;;;;;;;7.60;99.90;;;;;;5053907;28;20278;-65
2022/02/20 05:37:38;;;;;;;;;;;7.60;99.90;;;;;;5038610;28;19904;-66
2022/02/20 05:40:04;;;;;;;;;;;7.60;99.90;;;;;;5055520;28;19916;-66
2022/02/20 05:42:30;;;;;;;;;;;7.60;99.90;;;;;;5055676;28;19931;-65
2022/02/20 05:44:55;;;;;;;;;;;7.50;99.90;;;;;;5054516;28;19963;-65
2022/02/20 05:47:21;;;;;;;;;;;7.50;99.90;;;;;;5055513;28;19955;-65
2022/02/20 05:49:46;;;;;;;;;;;7.50;99.90;;;;;;5038022;28;19909;-65
2022/02/20 05:52:12;;;;;;;;;;;7.50;99.90;;;;;;5038206;28;19911;-68
2022/02/20 05:54:37;;;;;;;;;;;7.50;99.90;;;;;;5054680;28;19916;-66
2022/02/20 05:57:03;;;;;;;;;;;7.60;99.90;;;;;;5056301;28;19904;-66
2022/02/20 05:59:30;;;;;;;;;;;7.50;99.90;;;;;;5056367;28;19912;-65
2022/02/20 06:01:55;;;;;;;;;;;7.50;99.90;;;;;;5037071;28;19978;-66
2022/02/20 06:04:21;;;;;;;;;;;7.40;99.90;;;;;;5056296;28;19966;-69
2022/02/20 06:06:46;;;;;;;;;;;7.40;99.90;;;;;;5056342;28;20357;-66
2022/02/20 06:09:12;;;;;;;;;;;7.40;99.90;;;;;;5056109;28;19909;-66
2022/02/20 06:11:37;;;;;;;;;;;7.40;99.90;;;;;;5038693;28;19912;-65
2022/02/20 06:14:03;;;;;;;;;;;7.50;99.90;;;;;;5037480;28;19915;-65
2022/02/20 06:16:28;;;;;;;;;;;7.50;99.90;;;;;;5037855;28;20350;-68
2022/02/20 06:18:54;;;;;;;;;;;7.50;99.90;;;;;;5055117;28;19905;-66
2022/02/20 06:21:19;;;;;;;;;;;7.40;99.90;;;;;;5038322;28;20357;-66
2022/02/20 06:23:45;;;;;;;;;;;7.50;99.90;;;;;;5038558;28;19909;-66
2022/02/20 06:26:12;;;;;;;;;;;7.50;99.90;;;;;;5055977;28;19904;-65
2022/02/20 06:28:37;;;;;;;;;;;7.50;99.90;;;;;;5055971;28;19909;-67
2022/02/20 06:31:03;;;;;;;;;;;7.50;99.90;;;;;;5056223;28;19912;-67
2022/02/20 06:33:29;;;;;;;;;;;7.50;99.90;;;;;;5038230;28;19904;-65
2022/02/20 06:35:54;;;;;;;;;;;7.60;99.90;;;;;;5054076;28;19991;-68
2022/02/20 06:38:20;;;;;;;;;;;7.60;99.90;;;;;;5036247;28;19905;-65
2022/02/20 06:40:45;;;;;;;;;;;7.50;99.90;;;;;;5036647;28;20286;-65
2022/02/20 06:43:12;;;;;;;;;;;7.60;99.90;;;;;;5035606;28;19908;-67
2022/02/20 06:45:37;;;;;;;;;;;7.60;99.90;;;;;;5035443;28;19913;-64
2022/02/20 06:48:04;;;;;;;;;;;7.50;99.90;;;;;;5034899;28;19912;-66
2022/02/20 06:50:29;;;;;;;;;;;7.60;99.90;;;;;;5035520;28;20266;-67
2022/02/20 06:52:55;;;;;;;;;;;7.60;99.90;;;;;;5054162;28;19909;-71
2022/02/20 06:55:20;;;;;;;;;;;7.60;99.90;;;;;;5055552;28;19911;-69
2022/02/20 06:57:46;;;;;;;;;;;7.60;99.90;;;;;;5036716;28;20312;-68
2022/02/20 07:00:12;;;;;;;;;;;7.60;99.90;;;;;;5055123;28;19912;-65
2022/02/20 07:02:38;;;;;;;;;;;7.70;99.90;;;;;;5035947;28;19912;-66
2022/02/20 07:05:04;;;;;;;;;;;7.70;99.90;;;;;;5055015;28;19904;-66
2022/02/20 07:07:30;;;;;;;;;;;7.60;99.90;;;;;;5058962;28;20373;-67
2022/02/20 07:09:56;;;;;;;;;;;7.50;99.90;;;;;;5039376;28;19904;-70
2022/02/20 07:12:21;;;;;;;;;;;7.50;99.90;;;;;;5056940;28;20003;-66
2022/02/20 07:14:47;;;;;;;;;;;7.50;99.90;;;;;;5038708;28;20371;-66
2022/02/20 07:17:12;;;;;;;;;;;7.50;99.90;;;;;;5038292;28;20274;-66
2022/02/20 07:19:38;;;;;;;;;;;7.50;99.90;;;;;;5058684;28;19905;-67
2022/02/20 07:22:03;;;;;;;;;;;7.60;99.90;;;;;;5039911;28;19909;-65
2022/02/20 07:24:29;;;;;;;;;;;7.50;99.90;;;;;;5058221;28;19951;-67
2022/02/20 07:26:55;;;;;;;;;;;7.60;99.90;;;;;;5058786;28;20342;-69
2022/02/20 07:29:20;;;;;;;;;;;7.60;99.90;;;;;;5040209;28;19905;-66
2022/02/20 07:31:46;;;;;;;;;;;7.70;99.90;;;;;;5056746;28;19904;-65
2022/02/20 07:34:12;;;;;;;;;;;7.70;99.90;;;;;;5037845;28;19908;-66
2022/02/20 07:36:41;;;;;;;;;;;7.70;99.90;;;;;;5056022;28;19904;-66
2022/02/20 07:39:08;;;;;;;;;;;7.80;99.90;;;;;;5055765;28;19905;-65
2022/02/20 07:41:33;;;;;;;;;;;7.80;99.90;;;;;;5055984;28;20043;-65
2022/02/20 07:43:59;;;;;;;;;;;7.80;99.90;;;;;;5037330;28;20388;-67
2022/02/20 07:46:25;;;;;;;;;;;7.80;99.90;;;;;;5055936;28;19991;-66
2022/02/20 07:48:53;;;;;;;;;;;7.80;99.90;;;;;;5055959;28;19912;-66
2022/02/20 07:51:19;;;;;;;;;;;7.90;99.90;;;;;;5055206;28;19908;-65
2022/02/20 07:53:44;;;;;;;;;;;7.80;99.90;;;;;;5055807;28;19940;-66
2022/02/20 07:56:10;;;;;;;;;;;7.80;99.90;;;;;;5055153;28;19999;-65
2022/02/20 07:58:37;;;;;;;;;;;7.90;99.90;;;;;;5055952;28;19932;-66
2022/02/20 08:01:03;;;;;;;;;;;7.80;99.90;;;;;;5055320;28;19920;-67
2022/02/20 08:03:29;;;;;;;;;;;7.90;99.90;;;;;;5055243;28;19932;-66
2022/02/20 08:05:54;;;;;;;;;;;7.80;99.90;;;;;;5055217;28;19974;-66
2022/02/20 08:08:20;;;;;;;;;;;7.80;99.90;;;;;;5054906;28;20385;-66
2022/02/20 08:10:45;;;;;;;;;;;7.80;99.90;;;;;;5055937;28;20259;-66
2022/02/20 08:13:11;;;;;;;;;;;7.80;99.90;;;;;;5037121;28;19908;-66
2022/02/20 08:15:36;;;;;;;;;;;7.80;99.90;;;;;;5035924;28;20350;-65
2022/02/20 08:18:02;;;;;;;;;;;7.80;99.90;;;;;;5046889;28;20007;-66
2022/02/20 08:20:27;;;;;;;;;;;7.80;99.90;;;;;;5036563;28;20023;-69
2022/02/20 08:22:54;;;;;;;;;;;7.80;99.90;;;;;;5051860;28;19909;-68
2022/02/20 08:25:20;;;;;;;;;;;7.90;99.90;;;;;;5030448;28;20124;-67
2022/02/20 08:27:45;;;;;;;;;;;7.80;99.90;;;;;;5045076;28;19912;-68
2022/02/20 08:30:11;;;;;;;;;;;7.80;99.90;;;;;;5028898;28;19905;-67
2022/02/20 08:32:37;;;;;;;;;;;7.80;99.90;;;;;;5033270;28;19913;-74
2022/02/20 08:35:08;;;;;;;;;;;7.70;99.90;;;;;;5037159;28;19905;-67
2022/02/20 08:37:34;;;;;;;;;;;7.70;99.90;;;;;;5037549;28;20358;-69
2022/02/20 08:40:00;;;;;;;;;;;8.20;99.90;;;;;;5057955;28;19905;-66
2022/02/20 08:42:26;;;;;;;;;;;8.90;99.90;;;;;;5038887;28;19958;-67
2022/02/20 08:44:51;;;;;;;;;;;8.30;99.90;;;;;;5040189;28;19909;-71
2022/02/20 08:47:18;;;;;;;;;;;8.10;99.90;;;;;;5033270;28;20003;-66
2022/02/20 08:49:43;;;;;;;;;;;8.00;99.90;;;;;;5052929;28;19904;-68
2022/02/20 08:52:11;;;;;;;;;;;7.90;99.90;;;;;;5037653;28;19911;-69
2022/02/20 08:54:37;;;;;;;;;;;7.80;99.90;;;;;;5038164;28;19909;-66
2022/02/20 08:57:07;;;;;;;;;;;7.70;99.90;;;;;;5056751;28;19905;-67
2022/02/20 08:59:33;;;;;;;;;;;7.80;99.90;;;;;;5053042;28;19915;-65
2022/02/20 09:01:58;;;;;;;;;;;7.70;99.90;;;;;;5054936;28;19956;-66
2022/02/20 09:04:24;;;;;;;;;;;7.70;99.90;;;;;;5053578;28;19912;-67
2022/02/20 09:06:51;;;;;;;;;;;7.70;99.90;;;;;;5031670;28;19916;-67
2022/02/20 09:09:16;;;;;;;;;;;7.70;99.90;;;;;;5027787;28;19962;-67
2022/02/20 09:11:43;;;;;;;;;;;7.70;99.90;;;;;;5045226;28;19909;-66
2022/02/20 09:14:08;;;;;;;;;;;7.70;99.90;;;;;;5023157;28;19920;-65
2022/02/20 09:16:34;;;;;;;;;;;7.60;99.90;;;;;;5022062;28;19917;-66
2022/02/20 09:19:03;;;;;;;;;;;7.60;99.90;;;;;;5015146;28;19905;-65
2022/02/20 09:21:31;;;;;;;;;;;7.60;99.90;;;;;;5009760;28;19924;-64
2022/02/20 09:23:57;;;;;;;;;;;7.60;99.90;;;;;;5001963;28;19914;-68
2022/02/20 09:26:23;;;;;;;;;;;7.60;99.90;;;;;;5001301;28;19980;-65
2022/02/20 09:28:49;;;;;;;;;;;7.60;99.90;;;;;;5004333;28;20345;-64
2022/02/20 09:31:14;;;;;;;;;;;7.60;99.90;;;;;;5006377;28;19964;-70
2022/02/20 09:33:40;;;;;;;;;;;7.60;99.90;;;;;;4995664;28;19917;-64
2022/02/20 09:36:08;;;;;;;;;;;7.60;99.90;;;;;;5000459;28;19956;-66
2022/02/20 09:38:36;;;;;;;;;;;7.60;99.90;;;;;;4996981;28;20348;-64
2022/02/20 09:41:04;;;;;;;;;;;7.70;99.90;;;;;;4995859;28;20267;-64
2022/02/20 09:43:32;;;;;;;;;;;7.70;99.90;;;;;;5010569;28;19910;-65
2022/02/20 09:45:58;;;;;;;;;;;7.70;99.90;;;;;;5003141;28;19925;-65
2022/02/20 09:48:23;;;;;;;;;;;7.70;99.90;;;;;;5014583;28;20276;-65
2022/02/20 09:50:49;;;;;;;;;;;7.80;99.90;;;;;;5015943;28;19905;-63
2022/02/20 09:53:14;;;;;;;;;;;7.80;99.90;;;;;;5013633;28;19996;-72
2022/02/20 09:55:43;;;;;;;;;;;7.80;99.90;;;;;;5015718;28;20365;-66
2022/02/20 09:58:09;;;;;;;;;;;7.90;99.90;;;;;;5012664;28;19910;-65
2022/02/20 10:00:34;;;;;;;;;;;7.90;99.90;;;;;;5007266;28;20358;-66
2022/02/20 10:03:02;;;;;;;;;;;7.90;99.90;;;;;;5010830;28;19909;-65
2022/02/20 10:05:28;;;;;;;;;;;7.90;99.90;;;;;;4996608;28;20363;-64
2022/02/20 10:07:55;;;;;;;;;;;7.90;99.90;;;;;;5001759;28;19910;-65
2022/02/20 10:10:25;;;;;;;;;;;7.90;99.90;;;;;;5014107;28;19912;-68
2022/02/20 10:12:57;;;;;;;;;;;7.90;99.90;;;;;;5013677;28;19917;-67
2022/02/20 10:15:26;;;;;;;;;;;7.90;99.90;;;;;;5010385;28;19921;-63
2022/02/20 10:17:56;;;;;;;;;;;7.90;99.90;;;;;;5042986;28;19909;-66
2022/02/20 10:20:23;;;;;;;;;;;8.00;99.90;;;;;;5019864;28;19920;-68
2022/02/20 10:22:49;;;;;;;;;;;8.10;99.90;;;;;;5037779;28;19905;-65
2022/02/20 10:25:14;;;;;;;;;;;8.00;99.90;;;;;;5029263;28;19992;-63
2022/02/20 10:27:51;;;;;;;;;;;8.00;99.90;;;;;;5035365;28;20342;-68
2022/02/20 10:30:18;;;;;;;;;;;8.00;99.90;;;;;;5041744;28;19909;-65
2022/02/20 10:32:44;;;;;;;;;;;8.00;99.90;;;;;;5046266;28;19912;-65
2022/02/20 10:35:12;;;;;;;;;;;8.00;99.90;;;;;;5046980;28;19948;-72
2022/02/20 10:37:37;;;;;;;;;;;8.10;99.90;;;;;;5036209;28;19909;-69
2022/02/20 10:40:22;;;;;;;;;;;8.20;99.90;;;;;;5019620;28;19905;-66
2022/02/20 10:42:48;;;;;;;;;;;8.20;99.90;;;;;;5025508;28;19955;-68
2022/02/20 10:45:24;;;;;;;;;;;8.20;99.90;;;;;;5021522;28;19913;-65
2022/02/20 10:47:50;;;;;;;;;;;8.20;99.90;;;;;;5039580;28;19905;-64
2022/02/20 10:50:16;;;;;;;;;;;8.30;99.90;;;;;;5020970;28;19905;-67
2022/02/20 10:52:42;;;;;;;;;;;8.30;99.90;;;;;;5045966;28;19951;-67
2022/02/20 10:55:09;;;;;;;;;;;8.40;99.90;;;;;;5039102;28;20354;-66
2022/02/20 10:57:36;;;;;;;;;;;8.40;99.90;;;;;;5057963;28;19905;-65
2022/02/20 11:00:21;;;;;;;;;;;8.40;99.90;;;;;;5039552;28;19905;-65
2022/02/20 11:02:48;;;;;;;;;;;8.50;99.90;;;;;;5031045;28;19915;-64
2022/02/20 11:05:14;;;;;;;;;;;8.60;99.90;;;;;;5039178;28;19908;-65
2022/02/20 11:07:40;;;;;;;;;;;8.60;99.90;;;;;;5057155;28;19905;-66
2022/02/20 11:10:09;;;;;;;;;;;8.60;99.90;;;;;;5038471;28;19905;-65
2022/02/20 11:12:38;;;;;;;;;;;8.60;99.90;;;;;;5056525;28;20027;-64
2022/02/20 11:15:04;;;;;;;;;;;8.70;99.90;;;;;;5056390;28;19979;-64
2022/02/20 11:17:30;;;;;;;;;;;8.70;99.90;;;;;;5000336;28;19917;-63
2022/02/20 11:19:57;;;;;;;;;;;8.70;99.90;;;;;;5017238;28;19964;-63
2022/02/20 11:22:25;;;;;;;;;;;8.70;99.90;;;;;;5015592;28;19909;-65
2022/02/20 11:24:51;;;;;;;;;;;8.70;99.90;;;;;;5017094;28;19906;-65
2022/02/20 11:27:18;;;;;;;;;;;8.70;99.90;;;;;;5015327;28;19905;-63
2022/02/20 11:29:44;;;;;;;;;;;8.70;99.90;;;;;;5015718;28;19955;-68
2022/02/20 11:32:10;;;;;;;;;;;8.80;99.90;;;;;;5015237;28;19910;-67
2022/02/20 11:34:42;;;;;;;;;;;8.80;99.90;;;;;;4999132;28;19909;-63
2022/02/20 11:37:09;;;;;;;;;;;8.80;99.90;;;;;;5016650;28;19906;-64
2022/02/20 11:39:35;;;;;;;;;;;8.80;99.90;;;;;;5015614;28;19996;-65
2022/02/20 11:42:06;;;;;;;;;;;8.80;99.90;;;;;;5016389;28;20015;-64
2022/02/20 11:44:47;;;;;;;;;;;8.70;99.90;;;;;;5016690;28;19914;-64
2022/02/20 11:47:31;;;;;;;;;;;8.80;99.90;;;;;;5015909;28;20363;-66
2022/02/20 11:50:16;;;;;;;;;;;8.80;99.90;;;;;;5015446;28;19905;-64
2022/02/20 11:52:47;;;;;;;;;;;8.90;99.90;;;;;;5014482;28;19914;-65
2022/02/20 11:55:13;;;;;;;;;;;8.80;99.90;;;;;;5006758;28;20287;-65
2022/02/20 11:57:39;;;;;;;;;;;8.90;99.90;;;;;;4980477;28;19916;-64
2022/02/20 12:00:06;;;;;;;;;;;8.90;99.90;;;;;;4999348;28;19905;-65
2022/02/20 12:02:31;;;;;;;;;;;8.90;99.90;;;;;;4995658;28;20295;-66
2022/02/20 12:04:57;;;;;;;;;;;8.90;99.90;;;;;;4995850;28;19910;-63
2022/02/20 12:07:30;;;;;;;;;;;8.90;99.90;;;;;;4994854;28;19906;-63
2022/02/20 12:10:14;;;;;;;;;;;8.90;99.90;;;;;;5006074;28;19905;-63
2022/02/20 12:12:39;;;;;;;;;;;8.90;99.90;;;;;;5014452;28;19905;-65
2022/02/20 12:15:23;;;;;;;;;;;9.00;99.90;;;;;;5014783;28;19920;-65
2022/02/20 12:18:02;;;;;;;;;;;9.00;99.90;;;;;;5013409;28;19917;-64
2022/02/20 12:20:49;;;;;;;;;;;8.90;99.90;;;;;;5012865;28;19914;-64
2022/02/20 12:23:27;;;;;;;;;;;8.90;99.90;;;;;;5012459;28;20012;-66
2022/02/20 12:25:53;;;;;;;;;;;8.90;99.90;;;;;;4996603;28;20382;-66
2022/02/20 12:28:31;;;;;;;;;;;9.00;99.90;;;;;;4988351;28;19984;-64
2022/02/20 12:30:57;;;;;;;;;;;9.00;99.90;;;;;;5004661;28;20648;-67
2022/02/20 12:33:34;;;;;;;;;;;9.00;99.90;;;;;;5006217;28;19988;-68
2022/02/20 12:36:00;;;;;;;;;;;8.90;99.90;;;;;;5000195;28;19910;-67
2022/02/20 12:38:25;;;;;;;;;;;8.90;99.90;;;;;;5007610;28;20302;-68
2022/02/20 12:40:52;;;;;;;;;;;8.80;99.90;;;;;;5007782;28;19928;-64
2022/02/20 12:43:17;;;;;;;;;;;8.80;99.90;;;;;;4991010;28;20428;-66
2022/02/20 12:45:44;;;;;;;;;;;8.80;99.90;;;;;;4999985;28;19919;-66
2022/02/20 12:48:12;;;;;;;;;;;8.80;99.90;;;;;;5008875;28;19931;-64
2022/02/20 12:50:49;;;;;;;;;;;8.80;99.90;;;;;;4995651;28;19916;-66
2022/02/20 12:53:15;;;;;;;;;;;8.90;99.90;;;;;;4989946;28;19910;-66
2022/02/20 12:55:41;;;;;;;;;;;8.90;99.90;;;;;;4992856;28;19913;-72
2022/02/20 12:58:10;;;;;;;;;;;8.90;99.90;;;;;;5007255;28;19916;-65
2022/02/20 13:00:40;;;;;;;;;;;8.90;99.90;;;;;;5013466;28;20059;-65
2022/02/20 13:03:10;;;;;;;;;;;8.90;99.90;;;;;;5016775;28;19909;-69
2022/02/20 13:05:37;;;;;;;;;;;9.00;99.90;;;;;;5016775;28;19905;-69
2022/02/20 13:08:11;;;;;;;;;;;8.90;99.90;;;;;;5014200;28;20302;-64
2022/02/20 13:10:38;;;;;;;;;;;8.90;99.90;;;;;;5009488;28;19912;-64
2022/02/20 13:13:07;;;;;;;;;;;8.90;99.90;;;;;;5007879;28;20011;-65
2022/02/20 13:15:53;;;;;;;;;;;9.00;99.90;;;;;;5008830;28;19921;-65
2022/02/20 13:18:21;;;;;;;;;;;8.90;99.90;;;;;;5042797;28;19909;-67
2022/02/20 13:20:46;;;;;;;;;;;8.90;99.90;;;;;;5027838;28;19938;-63
2022/02/20 13:23:13;;;;;;;;;;;8.90;99.90;;;;;;5029277;28;19913;-65
2022/02/20 13:25:39;;;;;;;;;;;9.00;99.90;;;;;;5048219;28;19916;-63
2022/02/20 13:28:05;;;;;;;;;;;9.00;99.90;;;;;;5053918;28;19905;-68
2022/02/20 13:30:34;;;;;;;;;;;9.00;99.90;;;;;;5035967;28;19912;-64
2022/02/20 13:33:14;;;;;;;;;;;9.00;99.90;;;;;;5027201;28;20406;-62
2022/02/20 13:35:41;;;;;;;;;;;9.00;99.90;;;;;;5047988;28;19992;-64
2022/02/20 13:38:23;;;;;;;;;;;9.00;99.90;;;;;;5036405;28;19905;-65
2022/02/20 13:40:50;;;;;;;;;;;9.00;99.90;;;;;;5053594;28;19908;-64
2022/02/20 13:43:16;;;;;;;;;;;9.00;99.90;;;;;;5053011;28;19913;-73
2022/02/20 13:45:52;;;;;;;;;;;9.10;99.90;;;;;;5054381;28;19909;-64
2022/02/20 13:48:22;;;;;;;;;;;9.10;99.90;;;;;;5034857;28;19909;-68
2022/02/20 13:50:47;;;;;;;;;;;9.10;99.90;;;;;;5026859;28;20373;-63
2022/02/20 13:53:13;;;;;;;;;;;9.10;99.90;;;;;;5031658;28;19904;-65
2022/02/20 13:55:38;;;;;;;;;;;9.10;99.90;;;;;;5053103;28;19912;-64
2022/02/20 13:58:12;;;;;;;;;;;9.10;99.90;;;;;;5035895;28;19904;-63
2022/02/20 14:00:38;;;;;;;;;;;9.20;99.90;;;;;;5033083;28;20011;-66
2022/02/20 14:03:05;;;;;;;;;;;9.20;99.90;;;;;;5044180;28;19944;-63
2022/02/20 14:05:34;;;;;;;;;;;9.10;99.90;;;;;;5025917;28;19905;-65
2022/02/20 14:08:06;;;;;;;;;;;9.10;99.90;;;;;;5029220;28;19905;-64
2022/02/20 14:10:32;;;;;;;;;;;9.10;99.90;;;;;;5029588;28;20003;-66
2022/02/20 14:12:57;;;;;;;;;;;9.10;99.90;;;;;;5032955;28;19935;-64
2022/02/20 14:15:30;;;;;;;;;;;9.00;99.90;;;;;;5046824;28;19936;-66
2022/02/20 14:18:05;;;;;;;;;;;8.90;99.90;;;;;;5057950;28;19951;-66
2022/02/20 14:20:35;;;;;;;;;;;9.00;99.90;;;;;;5033243;28;19920;-63
2022/02/20 14:23:11;;;;;;;;;;;9.00;99.90;;;;;;5036691;28;19912;-65
2022/02/20 14:25:37;;;;;;;;;;;9.00;99.90;;;;;;5025273;28;19916;-64
2022/02/20 14:28:04;;;;;;;;;;;8.90;99.90;;;;;;5044078;28;19931;-66
2022/02/20 14:30:35;;;;;;;;;;;8.90;99.90;;;;;;5039513;28;19904;-64